首页
METAR-TAF:

METAR-TAF

机场 :

臺東機場

臺東, 台湾

纬度: 22-45-17N, 经度: 121-06-06E, 海拔: 44米

当前天气观测

该预报发布于19分钟前的04:30 UTC
风速5节,风向,在西北东北之间变化
温度 25°C
湿度 100%
气压 1004 hPa
能見度: 4000
少量云层高于1000英尺
少量云层高于1500英尺, 积雨云.
多云层高于2000英尺
多云层高于3000英尺
阵雨

METAR: RCFN 280430Z 36005KT 310V050 4000 SHRA FEW010 FEW015CB BKN020 BKN030 25/25 Q1004 NOSIG RMK CB S-W-N A2967

时间: 12:49 (04:49 UTC)

预报

该预报发布于5小时和49分钟前的23:00 UTC
预报有效从28日的 00点(UTC)到 28日的 24点(UTC)
风速5节,风向北转东北
能见度10公里或以上
少量云层高于1200英尺
多云层高于3200英尺
短暂存在
从 28日的 03点(UTC)到 28日的 09点(UTC)
风速10节,风向东转东北
能見度: 4000
少量云层高于800英尺
少量云层高于1200英尺, 积雨云.
多云层高于1700英尺
阵雨,

TAF: RCFN 272300Z 2800/2824 03005KT 9999 FEW012 BKN032 TEMPO 2803/2809 06010KT 4000 SHRA FEW008 FEW012CB BKN017

超过4000个机场的气象观测和天气预报(METAR&TAF报告)。

可查询的气象台以黄色和红色小点在地图上表示。

将鼠标移到小点上方,可查看气象台名称。

然后点击查看天气观测和预报。

如需切换地图:点击带黑十字的绿色按钮放大地图;点击带横线的绿色按钮缩小地图;或者点击绿色箭头查看邻近地区的地图。


METAR-TAF: